sensor_id;sensor_type;location;lat;lon;timestamp;P1;durP1;ratioP1;P2;durP2;ratioP2
28772;SDS011;15925;51.222;5.678;2022-08-21T00:00:59;0.80;;;0.43;;
28772;SDS011;15925;51.222;5.678;2022-08-21T00:03:28;0.52;;;0.50;;
28772;SDS011;15925;51.222;5.678;2022-08-21T00:05:54;1.00;;;0.85;;
28772;SDS011;15925;51.222;5.678;2022-08-21T00:08:20;1.98;;;1.20;;
28772;SDS011;15925;51.222;5.678;2022-08-21T00:10:46;2.65;;;0.80;;
28772;SDS011;15925;51.222;5.678;2022-08-21T00:13:13;2.80;;;0.85;;
28772;SDS011;15925;51.222;5.678;2022-08-21T00:15:39;1.90;;;1.15;;
28772;SDS011;15925;51.222;5.678;2022-08-21T00:20:35;0.95;;;0.90;;
28772;SDS011;15925;51.222;5.678;2022-08-21T00:23:02;1.50;;;1.10;;
28772;SDS011;15925;51.222;5.678;2022-08-21T00:25:28;1.38;;;1.27;;
28772;SDS011;15925;51.222;5.678;2022-08-21T00:27:54;2.42;;;0.88;;
28772;SDS011;15925;51.222;5.678;2022-08-21T00:30:22;2.53;;;1.00;;
28772;SDS011;15925;51.222;5.678;2022-08-21T00:32:51;16.70;;;1.95;;
28772;SDS011;15925;51.222;5.678;2022-08-21T00:35:19;1.55;;;1.35;;
28772;SDS011;15925;51.222;5.678;2022-08-21T00:37:47;1.75;;;1.30;;
28772;SDS011;15925;51.222;5.678;2022-08-21T00:40:14;0.63;;;0.63;;
28772;SDS011;15925;51.222;5.678;2022-08-21T00:42:42;3.95;;;0.60;;
28772;SDS011;15925;51.222;5.678;2022-08-21T00:45:09;3.05;;;0.70;;
28772;SDS011;15925;51.222;5.678;2022-08-21T00:50:02;3.47;;;1.50;;
28772;SDS011;15925;51.222;5.678;2022-08-21T00:52:30;3.25;;;1.35;;
28772;SDS011;15925;51.222;5.678;2022-08-21T00:54:59;1.15;;;1.05;;
28772;SDS011;15925;51.222;5.678;2022-08-21T00:57:27;14.02;;;1.65;;
28772;SDS011;15925;51.222;5.678;2022-08-21T00:59:58;1.55;;;1.17;;
28772;SDS011;15925;51.222;5.678;2022-08-21T01:02:26;1.60;;;1.02;;
28772;SDS011;15925;51.222;5.678;2022-08-21T01:04:52;1.08;;;0.98;;
28772;SDS011;15925;51.222;5.678;2022-08-21T01:07:18;1.08;;;0.82;;
28772;SDS011;15925;51.222;5.678;2022-08-21T01:09:45;1.27;;;0.98;;
28772;SDS011;15925;51.222;5.678;2022-08-21T01:12:12;4.20;;;1.25;;
28772;SDS011;15925;51.222;5.678;2022-08-21T01:14:39;2.08;;;1.08;;
28772;SDS011;15925;51.222;5.678;2022-08-21T01:17:08;2.10;;;1.35;;
28772;SDS011;15925;51.222;5.678;2022-08-21T01:19:34;2.28;;;1.08;;
28772;SDS011;15925;51.222;5.678;2022-08-21T01:22:00;2.13;;;1.10;;
28772;SDS011;15925;51.222;5.678;2022-08-21T01:24:26;2.57;;;1.70;;
28772;SDS011;15925;51.222;5.678;2022-08-21T01:26:52;0.90;;;0.90;;
28772;SDS011;15925;51.222;5.678;2022-08-21T01:29:34;1.73;;;1.10;;
28772;SDS011;15925;51.222;5.678;2022-08-21T01:32:16;1.20;;;1.02;;
28772;SDS011;15925;51.222;5.678;2022-08-21T01:34:46;1.40;;;1.30;;
28772;SDS011;15925;51.222;5.678;2022-08-21T01:37:13;0.95;;;0.82;;
28772;SDS011;15925;51.222;5.678;2022-08-21T01:39:39;1.30;;;1.20;;
28772;SDS011;15925;51.222;5.678;2022-08-21T01:42:07;3.03;;;1.58;;
28772;SDS011;15925;51.222;5.678;2022-08-21T01:47:00;2.45;;;2.08;;
28772;SDS011;15925;51.222;5.678;2022-08-21T01:49:27;3.80;;;2.42;;
28772;SDS011;15925;51.222;5.678;2022-08-21T01:51:53;3.20;;;2.10;;
28772;SDS011;15925;51.222;5.678;2022-08-21T01:54:19;2.38;;;1.27;;
28772;SDS011;15925;51.222;5.678;2022-08-21T01:56:47;2.87;;;1.97;;
28772;SDS011;15925;51.222;5.678;2022-08-21T01:59:16;1.00;;;0.88;;
28772;SDS011;15925;51.222;5.678;2022-08-21T02:01:42;3.28;;;0.90;;
28772;SDS011;15925;51.222;5.678;2022-08-21T02:04:08;11.23;;;0.97;;
28772;SDS011;15925;51.222;5.678;2022-08-21T02:06:35;0.65;;;0.60;;
28772;SDS011;15925;51.222;5.678;2022-08-21T02:09:03;1.35;;;1.25;;
28772;SDS011;15925;51.222;5.678;2022-08-21T02:11:29;0.60;;;0.60;;
28772;SDS011;15925;51.222;5.678;2022-08-21T02:13:55;1.73;;;0.85;;
28772;SDS011;15925;51.222;5.678;2022-08-21T02:16:22;1.23;;;1.00;;
28772;SDS011;15925;51.222;5.678;2022-08-21T02:18:47;4.53;;;1.60;;
28772;SDS011;15925;51.222;5.678;2022-08-21T02:21:13;1.33;;;0.97;;
28772;SDS011;15925;51.222;5.678;2022-08-21T02:23:39;1.33;;;1.17;;
28772;SDS011;15925;51.222;5.678;2022-08-21T02:26:06;1.43;;;1.10;;
28772;SDS011;15925;51.222;5.678;2022-08-21T02:28:33;1.30;;;0.77;;
28772;SDS011;15925;51.222;5.678;2022-08-21T02:31:00;0.47;;;0.47;;
28772;SDS011;15925;51.222;5.678;2022-08-21T02:33:26;0.47;;;0.47;;
28772;SDS011;15925;51.222;5.678;2022-08-21T02:35:53;0.45;;;0.43;;
28772;SDS011;15925;51.222;5.678;2022-08-21T02:38:23;0.38;;;0.38;;
28772;SDS011;15925;51.222;5.678;2022-08-21T02:40:55;0.75;;;0.52;;
28772;SDS011;15925;51.222;5.678;2022-08-21T02:43:22;0.70;;;0.40;;
28772;SDS011;15925;51.222;5.678;2022-08-21T02:45:49;0.30;;;0.30;;
28772;SDS011;15925;51.222;5.678;2022-08-21T02:48:18;0.70;;;0.60;;
28772;SDS011;15925;51.222;5.678;2022-08-21T02:50:47;0.63;;;0.50;;
28772;SDS011;15925;51.222;5.678;2022-08-21T02:53:21;0.63;;;0.30;;
28772;SDS011;15925;51.222;5.678;2022-08-21T02:55:48;1.25;;;0.90;;
28772;SDS011;15925;51.222;5.678;2022-08-21T02:58:16;2.63;;;1.88;;
28772;SDS011;15925;51.222;5.678;2022-08-21T03:00:45;3.50;;;2.17;;
28772;SDS011;15925;51.222;5.678;2022-08-21T03:03:11;3.92;;;2.30;;
28772;SDS011;15925;51.222;5.678;2022-08-21T03:05:37;5.18;;;2.95;;
28772;SDS011;15925;51.222;5.678;2022-08-21T03:08:04;2.60;;;2.00;;
28772;SDS011;15925;51.222;5.678;2022-08-21T03:10:36;5.07;;;2.20;;
28772;SDS011;15925;51.222;5.678;2022-08-21T03:13:04;2.78;;;2.17;;
28772;SDS011;15925;51.222;5.678;2022-08-21T03:15:30;2.50;;;2.07;;
28772;SDS011;15925;51.222;5.678;2022-08-21T03:17:55;3.47;;;2.47;;
28772;SDS011;15925;51.222;5.678;2022-08-21T03:20:23;4.20;;;2.70;;
28772;SDS011;15925;51.222;5.678;2022-08-21T03:22:51;5.80;;;3.13;;
28772;SDS011;15925;51.222;5.678;2022-08-21T03:25:18;4.72;;;2.25;;
28772;SDS011;15925;51.222;5.678;2022-08-21T03:27:45;2.45;;;1.98;;
28772;SDS011;15925;51.222;5.678;2022-08-21T03:30:14;4.75;;;1.80;;
28772;SDS011;15925;51.222;5.678;2022-08-21T03:32:41;3.78;;;2.03;;
28772;SDS011;15925;51.222;5.678;2022-08-21T03:35:08;2.80;;;2.08;;
28772;SDS011;15925;51.222;5.678;2022-08-21T03:40:04;3.67;;;2.17;;
28772;SDS011;15925;51.222;5.678;2022-08-21T03:42:31;2.83;;;2.50;;
28772;SDS011;15925;51.222;5.678;2022-08-21T03:44:57;4.20;;;2.67;;
28772;SDS011;15925;51.222;5.678;2022-08-21T03:47:22;2.67;;;2.03;;
28772;SDS011;15925;51.222;5.678;2022-08-21T03:49:49;6.50;;;2.60;;
28772;SDS011;15925;51.222;5.678;2022-08-21T03:52:14;3.63;;;2.33;;
28772;SDS011;15925;51.222;5.678;2022-08-21T03:54:42;3.83;;;2.50;;
28772;SDS011;15925;51.222;5.678;2022-08-21T03:57:09;2.92;;;2.30;;
28772;SDS011;15925;51.222;5.678;2022-08-21T03:59:36;1.80;;;1.70;;
28772;SDS011;15925;51.222;5.678;2022-08-21T04:04:29;11.43;;;1.25;;
28772;SDS011;15925;51.222;5.678;2022-08-21T04:06:56;0.65;;;0.65;;
28772;SDS011;15925;51.222;5.678;2022-08-21T04:09:22;1.10;;;1.00;;
28772;SDS011;15925;51.222;5.678;2022-08-21T04:14:15;7.13;;;1.00;;
28772;SDS011;15925;51.222;5.678;2022-08-21T04:16:41;0.98;;;0.85;;
28772;SDS011;15925;51.222;5.678;2022-08-21T04:19:08;1.20;;;0.95;;
28772;SDS011;15925;51.222;5.678;2022-08-21T04:24:03;0.38;;;0.38;;
28772;SDS011;15925;51.222;5.678;2022-08-21T04:26:30;2.58;;;0.60;;
28772;SDS011;15925;51.222;5.678;2022-08-21T04:28:56;0.52;;;0.50;;
28772;SDS011;15925;51.222;5.678;2022-08-21T04:31:23;0.73;;;0.73;;
28772;SDS011;15925;51.222;5.678;2022-08-21T04:33:49;1.08;;;0.95;;
28772;SDS011;15925;51.222;5.678;2022-08-21T04:36:16;2.28;;;1.63;;
28772;SDS011;15925;51.222;5.678;2022-08-21T04:38:42;5.38;;;2.00;;
28772;SDS011;15925;51.222;5.678;2022-08-21T04:41:08;4.87;;;1.70;;
28772;SDS011;15925;51.222;5.678;2022-08-21T04:43:34;3.30;;;2.10;;
28772;SDS011;15925;51.222;5.678;2022-08-21T04:46:00;3.22;;;1.75;;
28772;SDS011;15925;51.222;5.678;2022-08-21T04:48:26;7.95;;;1.92;;
28772;SDS011;15925;51.222;5.678;2022-08-21T04:53:38;2.50;;;2.08;;
28772;SDS011;15925;51.222;5.678;2022-08-21T04:56:20;9.18;;;2.10;;
28772;SDS011;15925;51.222;5.678;2022-08-21T04:58:50;10.32;;;2.38;;
28772;SDS011;15925;51.222;5.678;2022-08-21T05:01:22;6.03;;;2.03;;
28772;SDS011;15925;51.222;5.678;2022-08-21T05:03:50;4.78;;;1.63;;
28772;SDS011;15925;51.222;5.678;2022-08-21T05:06:20;10.45;;;1.80;;
28772;SDS011;15925;51.222;5.678;2022-08-21T05:08:48;3.95;;;1.83;;
28772;SDS011;15925;51.222;5.678;2022-08-21T05:11:16;2.95;;;1.48;;
28772;SDS011;15925;51.222;5.678;2022-08-21T05:13:42;6.07;;;2.20;;
28772;SDS011;15925;51.222;5.678;2022-08-21T05:16:09;3.73;;;2.10;;
28772;SDS011;15925;51.222;5.678;2022-08-21T05:18:34;1.85;;;1.58;;
28772;SDS011;15925;51.222;5.678;2022-08-21T05:21:00;2.67;;;1.70;;
28772;SDS011;15925;51.222;5.678;2022-08-21T05:23:26;4.53;;;2.20;;
28772;SDS011;15925;51.222;5.678;2022-08-21T05:25:52;6.03;;;2.10;;
28772;SDS011;15925;51.222;5.678;2022-08-21T05:28:18;4.25;;;2.25;;
28772;SDS011;15925;51.222;5.678;2022-08-21T05:30:44;2.80;;;1.67;;
28772;SDS011;15925;51.222;5.678;2022-08-21T05:33:10;3.20;;;2.07;;
28772;SDS011;15925;51.222;5.678;2022-08-21T05:35:36;4.00;;;1.73;;
28772;SDS011;15925;51.222;5.678;2022-08-21T05:38:04;4.82;;;1.58;;
28772;SDS011;15925;51.222;5.678;2022-08-21T05:40:30;3.00;;;1.38;;
28772;SDS011;15925;51.222;5.678;2022-08-21T05:42:57;4.70;;;1.75;;
28772;SDS011;15925;51.222;5.678;2022-08-21T05:45:25;4.35;;;1.85;;
28772;SDS011;15925;51.222;5.678;2022-08-21T05:47:53;3.20;;;2.28;;
28772;SDS011;15925;51.222;5.678;2022-08-21T05:50:19;3.13;;;1.85;;
28772;SDS011;15925;51.222;5.678;2022-08-21T05:52:45;7.15;;;2.17;;
28772;SDS011;15925;51.222;5.678;2022-08-21T05:55:10;3.43;;;1.90;;
28772;SDS011;15925;51.222;5.678;2022-08-21T05:57:37;4.90;;;1.55;;
28772;SDS011;15925;51.222;5.678;2022-08-21T06:00:06;10.68;;;2.08;;
28772;SDS011;15925;51.222;5.678;2022-08-21T06:02:38;4.22;;;1.95;;
28772;SDS011;15925;51.222;5.678;2022-08-21T06:07:31;6.35;;;1.70;;
28772;SDS011;15925;51.222;5.678;2022-08-21T06:09:56;7.37;;;2.57;;
28772;SDS011;15925;51.222;5.678;2022-08-21T06:12:22;5.03;;;1.87;;
28772;SDS011;15925;51.222;5.678;2022-08-21T06:14:48;3.40;;;1.83;;
28772;SDS011;15925;51.222;5.678;2022-08-21T06:17:15;6.05;;;2.33;;
28772;SDS011;15925;51.222;5.678;2022-08-21T06:19:41;12.38;;;1.48;;
28772;SDS011;15925;51.222;5.678;2022-08-21T06:22:07;11.33;;;1.87;;
28772;SDS011;15925;51.222;5.678;2022-08-21T06:24:33;3.00;;;1.73;;
28772;SDS011;15925;51.222;5.678;2022-08-21T06:27:03;6.13;;;1.52;;
28772;SDS011;15925;51.222;5.678;2022-08-21T06:29:33;5.30;;;1.40;;
28772;SDS011;15925;51.222;5.678;2022-08-21T06:31:59;7.95;;;1.38;;
28772;SDS011;15925;51.222;5.678;2022-08-21T06:34:26;2.58;;;1.80;;
28772;SDS011;15925;51.222;5.678;2022-08-21T06:36:52;11.10;;;2.20;;
28772;SDS011;15925;51.222;5.678;2022-08-21T06:39:18;5.75;;;1.65;;
28772;SDS011;15925;51.222;5.678;2022-08-21T06:41:44;6.95;;;2.13;;
28772;SDS011;15925;51.222;5.678;2022-08-21T06:44:10;6.70;;;1.38;;
28772;SDS011;15925;51.222;5.678;2022-08-21T06:46:36;4.67;;;1.67;;
28772;SDS011;15925;51.222;5.678;2022-08-21T06:49:02;5.78;;;1.92;;
28772;SDS011;15925;51.222;5.678;2022-08-21T06:51:28;7.65;;;1.58;;
28772;SDS011;15925;51.222;5.678;2022-08-21T06:53:54;6.17;;;1.63;;
28772;SDS011;15925;51.222;5.678;2022-08-21T06:56:20;3.28;;;1.55;;
28772;SDS011;15925;51.222;5.678;2022-08-21T06:58:46;8.10;;;1.37;;
28772;SDS011;15925;51.222;5.678;2022-08-21T07:01:12;6.63;;;2.03;;
28772;SDS011;15925;51.222;5.678;2022-08-21T07:03:38;6.67;;;1.33;;
28772;SDS011;15925;51.222;5.678;2022-08-21T07:06:06;6.07;;;1.20;;
28772;SDS011;15925;51.222;5.678;2022-08-21T07:08:34;2.92;;;1.38;;
28772;SDS011;15925;51.222;5.678;2022-08-21T07:11:00;14.18;;;1.63;;
28772;SDS011;15925;51.222;5.678;2022-08-21T07:13:28;5.47;;;1.33;;
28772;SDS011;15925;51.222;5.678;2022-08-21T07:15:54;11.33;;;1.50;;
28772;SDS011;15925;51.222;5.678;2022-08-21T07:18:20;8.18;;;1.65;;
28772;SDS011;15925;51.222;5.678;2022-08-21T07:20:46;5.33;;;0.83;;
28772;SDS011;15925;51.222;5.678;2022-08-21T07:23:19;1.73;;;0.73;;
28772;SDS011;15925;51.222;5.678;2022-08-21T07:25:49;9.13;;;1.35;;
28772;SDS011;15925;51.222;5.678;2022-08-21T07:28:15;4.77;;;1.63;;
28772;SDS011;15925;51.222;5.678;2022-08-21T07:30:41;11.43;;;1.20;;
28772;SDS011;15925;51.222;5.678;2022-08-21T07:33:07;6.50;;;1.20;;
28772;SDS011;15925;51.222;5.678;2022-08-21T07:35:33;10.23;;;2.13;;
28772;SDS011;15925;51.222;5.678;2022-08-21T07:37:59;3.47;;;1.77;;
28772;SDS011;15925;51.222;5.678;2022-08-21T07:40:25;7.13;;;1.67;;
28772;SDS011;15925;51.222;5.678;2022-08-21T07:42:51;2.23;;;1.17;;
28772;SDS011;15925;51.222;5.678;2022-08-21T07:45:21;6.00;;;1.65;;
28772;SDS011;15925;51.222;5.678;2022-08-21T07:47:49;2.40;;;1.30;;
28772;SDS011;15925;51.222;5.678;2022-08-21T07:50:15;10.45;;;1.23;;
28772;SDS011;15925;51.222;5.678;2022-08-21T07:52:42;4.78;;;1.42;;
28772;SDS011;15925;51.222;5.678;2022-08-21T07:55:13;9.57;;;1.88;;
28772;SDS011;15925;51.222;5.678;2022-08-21T07:57:41;8.13;;;1.23;;
28772;SDS011;15925;51.222;5.678;2022-08-21T08:00:08;4.57;;;1.57;;
28772;SDS011;15925;51.222;5.678;2022-08-21T08:02:39;9.45;;;1.83;;
28772;SDS011;15925;51.222;5.678;2022-08-21T08:05:07;8.93;;;1.48;;
28772;SDS011;15925;51.222;5.678;2022-08-21T08:07:34;5.47;;;1.85;;
28772;SDS011;15925;51.222;5.678;2022-08-21T08:10:01;15.05;;;1.48;;
28772;SDS011;15925;51.222;5.678;2022-08-21T08:12:28;5.97;;;1.33;;
28772;SDS011;15925;51.222;5.678;2022-08-21T08:14:57;9.30;;;1.65;;
28772;SDS011;15925;51.222;5.678;2022-08-21T08:17:24;1.77;;;0.88;;
28772;SDS011;15925;51.222;5.678;2022-08-21T08:19:51;22.35;;;1.65;;
28772;SDS011;15925;51.222;5.678;2022-08-21T08:22:18;7.57;;;1.65;;
28772;SDS011;15925;51.222;5.678;2022-08-21T08:24:47;21.60;;;1.40;;
28772;SDS011;15925;51.222;5.678;2022-08-21T08:27:13;6.28;;;1.27;;
28772;SDS011;15925;51.222;5.678;2022-08-21T08:32:05;3.67;;;0.80;;
28772;SDS011;15925;51.222;5.678;2022-08-21T08:34:34;12.30;;;1.42;;
28772;SDS011;15925;51.222;5.678;2022-08-21T08:37:01;4.13;;;0.98;;
28772;SDS011;15925;51.222;5.678;2022-08-21T08:39:28;9.70;;;0.98;;
28772;SDS011;15925;51.222;5.678;2022-08-21T08:41:56;4.50;;;0.68;;
28772;SDS011;15925;51.222;5.678;2022-08-21T08:44:27;3.33;;;0.70;;
28772;SDS011;15925;51.222;5.678;2022-08-21T08:46:53;6.33;;;0.97;;
28772;SDS011;15925;51.222;5.678;2022-08-21T08:49:27;9.38;;;1.08;;
28772;SDS011;15925;51.222;5.678;2022-08-21T08:52:26;5.72;;;1.58;;
28772;SDS011;15925;51.222;5.678;2022-08-21T08:57:32;2.72;;;0.95;;
28772;SDS011;15925;51.222;5.678;2022-08-21T09:00:00;2.47;;;0.82;;
28772;SDS011;15925;51.222;5.678;2022-08-21T09:02:30;1.30;;;0.60;;
28772;SDS011;15925;51.222;5.678;2022-08-21T09:04:58;4.57;;;1.23;;
28772;SDS011;15925;51.222;5.678;2022-08-21T09:15:23;5.55;;;1.10;;
28772;SDS011;15925;51.222;5.678;2022-08-21T09:18:06;8.48;;;1.38;;
28772;SDS011;15925;51.222;5.678;2022-08-21T09:26:22;3.40;;;0.75;;
28772;SDS011;15925;51.222;5.678;2022-08-21T09:28:54;6.53;;;0.90;;
28772;SDS011;15925;51.222;5.678;2022-08-21T09:34:02;6.43;;;1.33;;
28772;SDS011;15925;51.222;5.678;2022-08-21T09:39:10;4.35;;;0.85;;
28772;SDS011;15925;51.222;5.678;2022-08-21T09:41:38;8.80;;;0.80;;
28772;SDS011;15925;51.222;5.678;2022-08-21T09:44:06;9.65;;;0.85;;
28772;SDS011;15925;51.222;5.678;2022-08-21T09:46:33;3.72;;;1.10;;
28772;SDS011;15925;51.222;5.678;2022-08-21T09:49:00;3.40;;;0.68;;
28772;SDS011;15925;51.222;5.678;2022-08-21T09:51:28;6.28;;;1.05;;
28772;SDS011;15925;51.222;5.678;2022-08-21T09:56:33;9.18;;;0.57;;
28772;SDS011;15925;51.222;5.678;2022-08-21T09:59:26;4.15;;;1.10;;
28772;SDS011;15925;51.222;5.678;2022-08-21T10:01:57;3.60;;;0.77;;
28772;SDS011;15925;51.222;5.678;2022-08-21T10:04:33;0.70;;;0.20;;
28772;SDS011;15925;51.222;5.678;2022-08-21T10:07:10;2.85;;;0.93;;
28772;SDS011;15925;51.222;5.678;2022-08-21T10:20:25;3.80;;;1.05;;
28772;SDS011;15925;51.222;5.678;2022-08-21T10:23:27;7.53;;;0.77;;
28772;SDS011;15925;51.222;5.678;2022-08-21T10:26:11;3.22;;;0.60;;
28772;SDS011;15925;51.222;5.678;2022-08-21T10:28:47;6.55;;;0.38;;
28772;SDS011;15925;51.222;5.678;2022-08-21T10:31:48;6.40;;;0.60;;
28772;SDS011;15925;51.222;5.678;2022-08-21T10:34:28;3.25;;;0.80;;
28772;SDS011;15925;51.222;5.678;2022-08-21T10:48:57;0.90;;;0.52;;
28772;SDS011;15925;51.222;5.678;2022-08-21T10:54:01;1.88;;;0.60;;
28772;SDS011;15925;51.222;5.678;2022-08-21T10:56:40;12.98;;;1.10;;
28772;SDS011;15925;51.222;5.678;2022-08-21T10:59:25;0.43;;;0.40;;
28772;SDS011;15925;51.222;5.678;2022-08-21T11:02:01;5.43;;;0.43;;
28772;SDS011;15925;51.222;5.678;2022-08-21T11:04:40;0.95;;;0.40;;
28772;SDS011;15925;51.222;5.678;2022-08-21T11:07:32;5.82;;;0.75;;
28772;SDS011;15925;51.222;5.678;2022-08-21T11:10:21;2.78;;;0.98;;
28772;SDS011;15925;51.222;5.678;2022-08-21T11:12:56;3.13;;;0.50;;
28772;SDS011;15925;51.222;5.678;2022-08-21T11:18:25;4.88;;;0.80;;
28772;SDS011;15925;51.222;5.678;2022-08-21T11:24:08;4.13;;;0.65;;
28772;SDS011;15925;51.222;5.678;2022-08-21T11:26:43;1.13;;;0.40;;
28772;SDS011;15925;51.222;5.678;2022-08-21T11:29:17;0.55;;;0.35;;
28772;SDS011;15925;51.222;5.678;2022-08-21T11:32:04;11.13;;;0.90;;
28772;SDS011;15925;51.222;5.678;2022-08-21T11:44:10;4.57;;;0.88;;
28772;SDS011;15925;51.222;5.678;2022-08-21T11:47:13;1.35;;;0.40;;
28772;SDS011;15925;51.222;5.678;2022-08-21T11:50:07;0.75;;;0.50;;
28772;SDS011;15925;51.222;5.678;2022-08-21T11:52:43;7.75;;;0.65;;
28772;SDS011;15925;51.222;5.678;2022-08-21T11:55:15;7.00;;;0.50;;
28772;SDS011;15925;51.222;5.678;2022-08-21T11:58:20;3.00;;;0.55;;
28772;SDS011;15925;51.222;5.678;2022-08-21T12:00:54;8.27;;;1.17;;
28772;SDS011;15925;51.222;5.678;2022-08-21T12:03:33;1.05;;;0.30;;
28772;SDS011;15925;51.222;5.678;2022-08-21T12:06:04;1.98;;;0.40;;
28772;SDS011;15925;51.222;5.678;2022-08-21T12:08:33;5.90;;;0.73;;
28772;SDS011;15925;51.222;5.678;2022-08-21T12:13:53;8.55;;;0.63;;
28772;SDS011;15925;51.222;5.678;2022-08-21T12:16:40;4.47;;;0.60;;
28772;SDS011;15925;51.222;5.678;2022-08-21T12:21:54;9.52;;;0.95;;
28772;SDS011;15925;51.222;5.678;2022-08-21T12:29:23;1.58;;;0.30;;
28772;SDS011;15925;51.222;5.678;2022-08-21T12:34:36;8.55;;;0.93;;
28772;SDS011;15925;51.222;5.678;2022-08-21T12:37:15;5.88;;;0.38;;
28772;SDS011;15925;51.222;5.678;2022-08-21T12:40:00;3.05;;;0.40;;
28772;SDS011;15925;51.222;5.678;2022-08-21T12:42:38;2.80;;;0.50;;
28772;SDS011;15925;51.222;5.678;2022-08-21T12:45:16;3.50;;;0.43;;
28772;SDS011;15925;51.222;5.678;2022-08-21T12:50:26;4.78;;;1.65;;
28772;SDS011;15925;51.222;5.678;2022-08-21T12:53:04;4.72;;;0.88;;
28772;SDS011;15925;51.222;5.678;2022-08-21T12:55:35;2.40;;;0.45;;
28772;SDS011;15925;51.222;5.678;2022-08-21T12:58:06;1.67;;;0.30;;
28772;SDS011;15925;51.222;5.678;2022-08-21T13:00:32;0.55;;;0.32;;
28772;SDS011;15925;51.222;5.678;2022-08-21T13:02:57;12.35;;;1.05;;
28772;SDS011;15925;51.222;5.678;2022-08-21T13:05:27;1.55;;;0.50;;
28772;SDS011;15925;51.222;5.678;2022-08-21T13:07:59;1.90;;;1.10;;
28772;SDS011;15925;51.222;5.678;2022-08-21T13:10:30;0.68;;;0.20;;
28772;SDS011;15925;51.222;5.678;2022-08-21T13:12:59;1.10;;;0.45;;
28772;SDS011;15925;51.222;5.678;2022-08-21T13:15:29;2.05;;;0.50;;
28772;SDS011;15925;51.222;5.678;2022-08-21T13:17:57;4.05;;;0.63;;
28772;SDS011;15925;51.222;5.678;2022-08-21T13:20:34;0.55;;;0.22;;
28772;SDS011;15925;51.222;5.678;2022-08-21T13:23:03;5.63;;;0.75;;
28772;SDS011;15925;51.222;5.678;2022-08-21T13:25:40;2.25;;;0.60;;
28772;SDS011;15925;51.222;5.678;2022-08-21T13:28:08;2.47;;;0.40;;
28772;SDS011;15925;51.222;5.678;2022-08-21T13:30:54;3.42;;;0.57;;
28772;SDS011;15925;51.222;5.678;2022-08-21T13:33:22;3.72;;;0.47;;
28772;SDS011;15925;51.222;5.678;2022-08-21T13:38:26;2.15;;;0.40;;
28772;SDS011;15925;51.222;5.678;2022-08-21T13:40:56;7.53;;;1.02;;
28772;SDS011;15925;51.222;5.678;2022-08-21T13:43:33;7.28;;;0.80;;
28772;SDS011;15925;51.222;5.678;2022-08-21T13:46:01;2.80;;;0.50;;
28772;SDS011;15925;51.222;5.678;2022-08-21T13:48:33;4.25;;;0.98;;
28772;SDS011;15925;51.222;5.678;2022-08-21T13:51:00;6.10;;;0.55;;
28772;SDS011;15925;51.222;5.678;2022-08-21T13:53:28;10.02;;;0.88;;
28772;SDS011;15925;51.222;5.678;2022-08-21T13:56:32;4.97;;;0.70;;
28772;SDS011;15925;51.222;5.678;2022-08-21T13:59:07;6.18;;;0.73;;
28772;SDS011;15925;51.222;5.678;2022-08-21T14:04:06;5.00;;;1.08;;
28772;SDS011;15925;51.222;5.678;2022-08-21T14:06:45;0.80;;;0.38;;
28772;SDS011;15925;51.222;5.678;2022-08-21T14:09:12;0.57;;;0.47;;
28772;SDS011;15925;51.222;5.678;2022-08-21T14:11:45;3.45;;;0.80;;
28772;SDS011;15925;51.222;5.678;2022-08-21T14:14:20;4.40;;;0.65;;
28772;SDS011;15925;51.222;5.678;2022-08-21T14:16:54;13.27;;;1.42;;
28772;SDS011;15925;51.222;5.678;2022-08-21T14:19:24;2.78;;;0.40;;
28772;SDS011;15925;51.222;5.678;2022-08-21T14:22:21;2.92;;;0.30;;
28772;SDS011;15925;51.222;5.678;2022-08-21T14:25:13;5.88;;;0.68;;
28772;SDS011;15925;51.222;5.678;2022-08-21T14:30:21;6.30;;;0.60;;
28772;SDS011;15925;51.222;5.678;2022-08-21T14:32:56;5.60;;;0.95;;
28772;SDS011;15925;51.222;5.678;2022-08-21T14:35:22;4.57;;;0.50;;
28772;SDS011;15925;51.222;5.678;2022-08-21T14:37:49;3.92;;;1.15;;
28772;SDS011;15925;51.222;5.678;2022-08-21T14:40:19;1.95;;;0.40;;
28772;SDS011;15925;51.222;5.678;2022-08-21T14:42:46;7.22;;;0.65;;
28772;SDS011;15925;51.222;5.678;2022-08-21T14:45:47;5.75;;;0.60;;
28772;SDS011;15925;51.222;5.678;2022-08-21T14:48:08;4.40;;;0.63;;
28772;SDS011;15925;51.222;5.678;2022-08-21T14:50:35;3.25;;;0.82;;
28772;SDS011;15925;51.222;5.678;2022-08-21T14:53:01;3.20;;;0.60;;
28772;SDS011;15925;51.222;5.678;2022-08-21T14:55:29;0.68;;;0.38;;
28772;SDS011;15925;51.222;5.678;2022-08-21T14:57:55;5.35;;;1.15;;
28772;SDS011;15925;51.222;5.678;2022-08-21T15:00:23;10.50;;;0.85;;
28772;SDS011;15925;51.222;5.678;2022-08-21T15:02:50;1.13;;;0.40;;
28772;SDS011;15925;51.222;5.678;2022-08-21T15:05:17;1.60;;;0.70;;
28772;SDS011;15925;51.222;5.678;2022-08-21T15:07:43;6.03;;;0.60;;
28772;SDS011;15925;51.222;5.678;2022-08-21T15:10:10;2.35;;;0.60;;
28772;SDS011;15925;51.222;5.678;2022-08-21T15:12:36;2.33;;;0.68;;
28772;SDS011;15925;51.222;5.678;2022-08-21T15:15:06;2.15;;;0.43;;
28772;SDS011;15925;51.222;5.678;2022-08-21T15:17:32;4.90;;;0.98;;
28772;SDS011;15925;51.222;5.678;2022-08-21T15:19:58;3.55;;;0.80;;
28772;SDS011;15925;51.222;5.678;2022-08-21T15:22:24;2.42;;;0.38;;
28772;SDS011;15925;51.222;5.678;2022-08-21T15:24:50;11.18;;;1.15;;
28772;SDS011;15925;51.222;5.678;2022-08-21T15:27:16;3.90;;;0.93;;
28772;SDS011;15925;51.222;5.678;2022-08-21T15:29:43;2.88;;;0.52;;
28772;SDS011;15925;51.222;5.678;2022-08-21T15:32:22;7.05;;;0.57;;
28772;SDS011;15925;51.222;5.678;2022-08-21T15:34:51;5.65;;;1.35;;
28772;SDS011;15925;51.222;5.678;2022-08-21T15:37:18;2.88;;;0.95;;
28772;SDS011;15925;51.222;5.678;2022-08-21T15:39:45;5.47;;;0.50;;
28772;SDS011;15925;51.222;5.678;2022-08-21T15:42:10;3.08;;;0.75;;
28772;SDS011;15925;51.222;5.678;2022-08-21T15:44:41;6.13;;;0.93;;
28772;SDS011;15925;51.222;5.678;2022-08-21T15:47:18;3.55;;;0.60;;
28772;SDS011;15925;51.222;5.678;2022-08-21T15:49:46;5.85;;;0.98;;
28772;SDS011;15925;51.222;5.678;2022-08-21T15:52:12;13.77;;;1.48;;
28772;SDS011;15925;51.222;5.678;2022-08-21T15:54:40;3.30;;;0.45;;
28772;SDS011;15925;51.222;5.678;2022-08-21T15:59:38;3.33;;;0.57;;
28772;SDS011;15925;51.222;5.678;2022-08-21T16:02:15;8.98;;;0.85;;
28772;SDS011;15925;51.222;5.678;2022-08-21T16:04:44;4.97;;;1.00;;
28772;SDS011;15925;51.222;5.678;2022-08-21T16:07:10;1.98;;;0.82;;
28772;SDS011;15925;51.222;5.678;2022-08-21T16:09:38;3.25;;;1.00;;
28772;SDS011;15925;51.222;5.678;2022-08-21T16:12:04;1.45;;;0.60;;
28772;SDS011;15925;51.222;5.678;2022-08-21T16:14:32;6.13;;;0.60;;
28772;SDS011;15925;51.222;5.678;2022-08-21T16:17:01;1.35;;;0.70;;
28772;SDS011;15925;51.222;5.678;2022-08-21T16:19:30;1.40;;;0.77;;
28772;SDS011;15925;51.222;5.678;2022-08-21T16:24:22;4.38;;;1.00;;
28772;SDS011;15925;51.222;5.678;2022-08-21T16:26:48;2.38;;;0.55;;
28772;SDS011;15925;51.222;5.678;2022-08-21T16:29:15;3.90;;;0.88;;
28772;SDS011;15925;51.222;5.678;2022-08-21T16:31:41;2.63;;;0.80;;
28772;SDS011;15925;51.222;5.678;2022-08-21T16:34:06;3.70;;;0.80;;
28772;SDS011;15925;51.222;5.678;2022-08-21T16:36:38;12.98;;;1.00;;
28772;SDS011;15925;51.222;5.678;2022-08-21T16:39:04;7.00;;;1.10;;
28772;SDS011;15925;51.222;5.678;2022-08-21T16:41:30;8.57;;;1.00;;
28772;SDS011;15925;51.222;5.678;2022-08-21T16:43:58;5.22;;;0.80;;
28772;SDS011;15925;51.222;5.678;2022-08-21T16:46:25;3.80;;;1.00;;
28772;SDS011;15925;51.222;5.678;2022-08-21T16:48:53;2.15;;;0.68;;
28772;SDS011;15925;51.222;5.678;2022-08-21T16:51:18;1.27;;;0.52;;
28772;SDS011;15925;51.222;5.678;2022-08-21T16:53:44;1.27;;;0.70;;
28772;SDS011;15925;51.222;5.678;2022-08-21T16:56:11;8.32;;;1.00;;
28772;SDS011;15925;51.222;5.678;2022-08-21T16:58:40;5.43;;;0.80;;